Terminal Aerodrome Forecast
Issued by NWS

Home | Current Version | Previous Version | Text Only | Print | Product List | Glossary On
Versions: 1 2 3 4 5 6 7 8 9 10 11 12 13 14 15 16 17 18
000
FTUS41 KPBZ 311731
TAFHLG
TAF
KHLG 311731Z 3118/0118 27004KT P6SM BKN090
     FM312200 25005KT P6SM VCTS BKN090CB
     FM010000 30005KT 6SM -SHRA VCTS OVC060CB
      TEMPO 0100/0102 3SM TSRA OVC040CB
     FM010600 34004KT P6SM BKN015
     FM011300 35007KT P6SM SCT025=

USA.gov is the U.S. government's official web portal to all federal, state and local government web resources and services.